Pilot No. 4 — WDA5463 — position and weather

sailwx.info

Track history (hours):
 
Tides and Currents Weather Stations Pressure Air Temp Water Temp Dewpoint Dewpoint Depression Visibility Wind Speed Wind Dir Waves Ship Positions

Pilot No. 4

Owner: P E P Inc, FORT LAUDERDALE, FL. More information available from US FCC via Universal Licensing System and Coast Guard Vessel Documentation Center.

Last reported at 2017-Jun-28 03:22 UTC. Time now 2017-Jun-28 07:13 UTC.
Position N 26°06' W 080°07'.

MMSI: 495270931.

Date/timePositionNaut miles runAvg speedWind from/ knotsBaromVisibWave heightAir tempDewpointWater temp
2017-Jun-28 03:22N 26°06' W 080°07'1 2.3
2017-Jun-28 03:01N 26°06' W 080°07'0 0.6
2017-Jun-28 02:30N 26°05' W 080°07'3 6.9
2017-Jun-28 02:00N 26°06' W 080°03'3 6.9
2017-Jun-28 01:31N 26°06' W 080°07'3 5.1
2017-Jun-28 01:01N 26°06' W 080°04'3 5.5
2017-Jun-28 00:31N 26°06' W 080°07'0 0.3
2017-Jun-27 23:33N 26°06' W 080°07'0 0.9
2017-Jun-27 23:30N 26°06' W 080°07'4 7.7
2017-Jun-27 23:00N 26°04' W 080°04'3 6.3
2017-Jun-27 22:30N 26°06' W 080°07'0 0.3
2017-Jun-27 22:00N 26°05' W 080°07'0 0.8
2017-Jun-27 21:30N 26°05' W 080°07'1 1.3
2017-Jun-27 21:01N 26°04' W 080°07'1 2.5
2017-Jun-27 20:30N 26°06' W 080°07'3 7.0
2017-Jun-27 20:00N 26°05' W 080°03'2 4.5
2017-Jun-27 19:30N 26°06' W 080°06'1 0.5
2017-Jun-27 16:48N 26°06' W 080°07'2 6.8
2017-Jun-27 16:30N 26°05' W 080°05'1 1.5
2017-Jun-27 16:01N 26°05' W 080°04'2 4.2
2017-Jun-27 15:31N 26°06' W 080°07'1 1.2
2017-Jun-27 15:00N 26°05' W 080°07'4 3.7
2017-Jun-27 14:00N 26°06' W 080°03'3 7.0
2017-Jun-27 13:30N 26°04' W 080°07'2 2.1
2017-Jun-27 12:38N 26°06' W 080°07'1 4.3
2017-Jun-27 12:31N 26°06' W 080°07'0 0.4
2017-Jun-27 12:01N 26°06' W 080°07'0 0.1
2017-Jun-27 08:23N 26°06' W 080°07'2 6.5
2017-Jun-27 08:00N 26°05' W 080°04'2 0.4
2017-Jun-27 01:54N 26°05' W 080°07'1 3.3
2017-Jun-27 01:31N 26°06' W 080°06'1 2.5
2017-Jun-27 01:00N 26°05' W 080°07'1 0.8
2017-Jun-26 23:43N 26°06' W 080°07'1 3.4
2017-Jun-26 23:30N 26°06' W 080°07'1 1.1
2017-Jun-26 23:01N 26°05' W 080°07'0 0.1
2017-Jun-26 22:30N 26°05' W 080°07'1 0.9
2017-Jun-26 21:22N 26°06' W 080°07'2 5.5
2017-Jun-26 21:00N 26°06' W 080°05'2 3.7
2017-Jun-26 20:30N 26°06' W 080°07'0 0.3
2017-Jun-26 20:01N 26°06' W 080°07'0 0.8
2017-Jun-26 19:30N 26°05' W 080°07'0 0.7
2017-Jun-26 19:00N 26°06' W 080°07'0 0.3
2017-Jun-26 18:31N 26°06' W 080°07'1 0.4
2017-Jun-26 17:13N 26°06' W 080°07'2 8.4
2017-Jun-26 17:00N 26°06' W 080°05'2 3.6
2017-Jun-26 16:30N 26°04' W 080°07'1 2.7
2017-Jun-26 16:00N 26°06' W 080°07'0 0.6
2017-Jun-26 15:22N 26°06' W 080°07'2 6.4
2017-Jun-26 15:01N 26°06' W 080°05'2 2.1
2017-Jun-26 14:01N 26°06' W 080°02'4 8.5
2017-Jun-26 13:30N 26°04' W 080°07'1 1.7
2017-Jun-26 13:00N 26°05' W 080°07'0 0.3
2017-Jun-26 12:30N 26°05' W 080°07'0 0.9
2017-Jun-26 12:00N 26°06' W 080°07'2 4.4
2017-Jun-26 11:30N 26°06' W 080°05'2 4.1
2017-Jun-26 11:00N 26°06' W 080°07'0 0.1
2017-Jun-26 09:22N 26°06' W 080°07'3 8.4
2017-Jun-26 09:00N 26°06' W 080°04'3 6.2
2017-Jun-26 08:30N 26°05' W 080°07'0 0.1
2017-Jun-26 08:01N 26°05' W 080°07'0 0.5
2017-Jun-26 07:31N 26°05' W 080°07'3 5.8
2017-Jun-26 07:01N 26°06' W 080°04'3 3.2
2017-Jun-26 05:57N 26°06' W 080°07'1 1.9
2017-Jun-26 05:30N 26°06' W 080°07'0 0.8
2017-Jun-26 05:00N 26°05' W 080°07'0 0.9
2017-Jun-26 04:30N 26°06' W 080°07'1 2.4
2017-Jun-26 04:00N 26°06' W 080°06'2 3.1
2017-Jun-26 03:30N 26°05' W 080°07'2 0.1
2017-Jun-25 16:52N 26°06' W 080°07'1 2.9
2017-Jun-25 16:30N 26°05' W 080°07'5 9.0
2017-Jun-25 16:00N 26°04' W 080°02'4 7.6
2017-Jun-25 15:30N 26°06' W 080°06'2 3.9
2017-Jun-25 15:00N 26°07' W 080°04'2 1.8
2017-Jun-25 14:00N 26°06' W 080°06'1 2.6
2017-Jun-25 13:31N 26°05' W 080°07'1 1.1
2017-Jun-25 12:30N 26°06' W 080°07'0 0.8
2017-Jun-25 12:01N 26°06' W 080°07'0 0.6
2017-Jun-25 11:17N 26°06' W 080°07'311.4
2017-Jun-25 11:00N 26°06' W 080°04'3 6.3
2017-Jun-25 10:30N 26°04' W 080°07'4 7.2
2017-Jun-25 10:00N 26°06' W 080°03'3 6.4
2017-Jun-25 09:30N 26°06' W 080°07'1 1.9
2017-Jun-25 09:00N 26°06' W 080°06'1 2.5
2017-Jun-25 08:30N 26°05' W 080°07'1 0.1
2017-Jun-25 01:55N 26°06' W 080°07'1 1.6
2017-Jun-25 01:30N 26°06' W 080°07'2 3.2
2017-Jun-25 01:01N 26°06' W 080°05'2 3.4
2017-Jun-25 00:30N 26°06' W 080°07'1 3.0
2017-Jun-25 00:00N 26°04' W 080°07'2 0.9
2017-Jun-24 21:47N 26°06' W 080°07'1 4.5
2017-Jun-24 21:30N 26°06' W 080°06'0 0.8
2017-Jun-24 21:00N 26°06' W 080°07'1 2.5
2017-Jun-24 20:30N 26°06' W 080°05'1 2.8
2017-Jun-24 20:01N 26°06' W 080°07'0 0.9
2017-Jun-24 19:31N 26°05' W 080°07'4 7.5
2017-Jun-24 19:01N 26°05' W 080°03'4 4.0
2017-Jun-24 17:54N 26°06' W 080°07'2 4.9
2017-Jun-24 17:31N 26°06' W 080°05'1 3.0
2017-Jun-24 17:00N 26°05' W 080°07'1 2.1
2017-Jun-24 16:30N 26°04' W 080°07'2 4.3
2017-Jun-24 16:01N 26°06' W 080°05'0 0.7
2017-Jun-24 15:31N 26°06' W 080°05'2 0.6
2017-Jun-24 12:40N 26°06' W 080°07'1 8.7
2017-Jun-24 12:31N 26°06' W 080°06'1 2.7
2017-Jun-24 12:00N 26°06' W 080°07'0 0.6
2017-Jun-24 11:17N 26°06' W 080°07'2 6.5
2017-Jun-24 11:00N 26°04' W 080°07'0 0.1
2017-Jun-24 10:30N 26°04' W 080°07'2 4.1
2017-Jun-24 10:01N 26°06' W 080°05'2 3.0
2017-Jun-24 09:31N 26°05' W 080°07'4 7.0
2017-Jun-24 09:00N 26°06' W 080°03'1 1.4
2017-Jun-24 08:30N 26°06' W 080°02'4 8.2
2017-Jun-24 08:00N 26°05' W 080°07'2 3.8
2017-Jun-24 07:30N 26°05' W 080°05'2 3.9
2017-Jun-24 07:00N 26°05' W 080°07'1 1.8
2017-Jun-24 06:30N 26°05' W 080°07'0 0.5
2017-Jun-24 06:00N 26°05' W 080°07'1 1.2
2017-Jun-24 04:51N 26°06' W 080°07'1 2.8
2017-Jun-24 04:31N 26°05' W 080°07'0 1.0
2017-Jun-24 04:00N 26°05' W 080°07'1 0.6
2017-Jun-24 01:48N 26°06' W 080°07'2 6.1
2017-Jun-24 01:30N 26°06' W 080°06'1 2.2
2017-Jun-24 01:01N 26°06' W 080°04'3 1.0
2017-Jun-23 22:21N 26°06' W 080°07'2 4.5
2017-Jun-23 22:00N 26°06' W 080°06'1 2.6
2017-Jun-23 21:30N 26°06' W 080°07'0 0.9
2017-Jun-23 21:00N 26°06' W 080°07'2 3.2
2017-Jun-23 20:30N 26°05' W 080°05'2 3.5
2017-Jun-23 20:01N 26°06' W 080°07'0 0.1
2017-Jun-23 11:05N 26°06' W 080°07'1 7.3
2017-Jun-23 11:00N 26°06' W 080°07'0 0.3
2017-Jun-23 10:30N 26°06' W 080°07'3 6.9
2017-Jun-23 10:00N 26°06' W 080°03'4 7.0
2017-Jun-23 09:31N 26°05' W 080°07'1 1.5
2017-Jun-23 09:00N 26°06' W 080°07'2 4.5
2017-Jun-23 08:30N 26°06' W 080°05'2 4.8
2017-Jun-23 08:00N 26°04' W 080°07'3 6.9
2017-Jun-23 07:30N 26°06' W 080°03'3 5.3
2017-Jun-23 07:01N 26°06' W 080°06'1 1.1
2017-Jun-23 06:30N 26°06' W 080°07'0 0.6
2017-Jun-23 06:00N 26°05' W 080°07'0 0.6
2017-Jun-23 05:30N 26°06' W 080°07'1 1.3
2017-Jun-23 05:00N 26°05' W 080°07'0 0.4
2017-Jun-23 04:30N 26°05' W 080°07'1 1.8
2017-Jun-23 04:00N 26°06' W 080°07'0 0.2
2017-Jun-23 02:57N 26°06' W 080°07'1 1.5
2017-Jun-23 02:30N 26°06' W 080°07'0 0.4
2017-Jun-23 02:00N 26°05' W 080°07'1 1.3
2017-Jun-23 01:30N 26°06' W 080°07'3 5.2
2017-Jun-23 01:00N 26°06' W 080°04'3 5.2
2017-Jun-23 00:30N 26°06' W 080°07'1 1.0
2017-Jun-23 00:00N 26°06' W 080°07'0 0.0
2017-Jun-22 23:30N 26°06' W 080°07'1 1.2
2017-Jun-22 23:00N 26°06' W 080°07'1 0.5
2017-Jun-22 21:44N 26°06' W 080°07'1 3.8
2017-Jun-22 21:31N 26°06' W 080°07'0 0.8
2017-Jun-22 21:00N 26°06' W 080°07'0 0.3
2017-Jun-22 20:31N 26°05' W 080°07'0 0.5
2017-Jun-22 20:00N 26°05' W 080°07'1 2.6
2017-Jun-22 19:31N 26°06' W 080°05'2 3.5
2017-Jun-22 19:00N 26°06' W 080°07'1 1.4
2017-Jun-22 18:30N 26°05' W 080°07'2 4.9
2017-Jun-22 18:00N 26°06' W 080°05'2 4.7
2017-Jun-22 17:30N 26°06' W 080°07'1 0.2
2017-Jun-22 14:29N 26°06' W 080°07'1 0.6
2017-Jun-22 13:31N 26°06' W 080°07'5 9.8
2017-Jun-22 13:01N 26°05' W 080°02'5 9.3
2017-Jun-22 12:30N 26°06' W 080°07'0 0.4
2017-Jun-22 12:01N 26°06' W 080°07'1 1.7
2017-Jun-22 11:30N 26°06' W 080°06'1 1.9
2017-Jun-22 11:00N 26°05' W 080°07'0 0.4
2017-Jun-22 10:30N 26°05' W 080°07'2 4.2
2017-Jun-22 10:01N 26°06' W 080°05'2 4.8
2017-Jun-22 09:30N 26°04' W 080°07'4 8.6
2017-Jun-22 09:00N 26°06' W 080°02'0 0.8
2017-Jun-22 08:31N 26°06' W 080°02'2 4.8
2017-Jun-22 08:00N 26°06' W 080°05'2 4.3
2017-Jun-22 07:30N 26°04' W 080°07'0 0.4
2017-Jun-22 07:00N 26°05' W 080°07'1 1.9
2017-Jun-22 06:30N 26°06' W 080°07'0 0.7
2017-Jun-22 06:01N 26°05' W 080°07'0 0.8
2017-Jun-22 05:30N 26°06' W 080°07'0 0.8
2017-Jun-22 05:00N 26°05' W 080°07'0 0.7
2017-Jun-22 04:30N 26°06' W 080°07'1 0.8
2017-Jun-22 03:43N 26°06' W 080°07'1 4.9
2017-Jun-22 03:30N 26°05' W 080°07'0 0.6
2017-Jun-22 03:00N 26°05' W 080°07'0 0.3
2017-Jun-22 02:30N 26°05' W 080°07'0 0.2
2017-Jun-22 02:00N 26°05' W 080°07'2 3.2
2017-Jun-22 01:30N 26°05' W 080°05'2 3.2
2017-Jun-22 01:00N 26°05' W 080°07'1 1.2
2017-Jun-22 00:30N 26°06' W 080°07'0 0.2
2017-Jun-21 22:33N 26°06' W 080°07'0 4.0
2017-Jun-21 22:31N 26°06' W 080°07'5 9.1
2017-Jun-21 22:00N 26°05' W 080°02'4 8.1
2017-Jun-21 21:31N 26°05' W 080°07'1 1.1
2017-Jun-21 20:11N 26°06' W 080°07'1 3.8
2017-Jun-21 20:00N 26°06' W 080°07'1 1.1
2017-Jun-21 19:31N 26°06' W 080°06'1 0.3
2017-Jun-21 16:16N 26°06' W 080°07'2 9.0
2017-Jun-21 16:01N 26°06' W 080°05'2 4.6
2017-Jun-21 15:30N 26°04' W 080°07'4 8.1
2017-Jun-21 15:00N 26°05' W 080°03'4 7.9
2017-Jun-21 14:30N 26°04' W 080°07'1 1.2
2017-Jun-21 13:30N 26°06' W 080°07'4 8.0
2017-Jun-21 13:00N 26°06' W 080°03'4 7.2
2017-Jun-21 12:30N 26°05' W 080°07'1 0.1
2017-Jun-21 01:36N 26°06' W 080°07'0 0.1
2017-Jun-21 01:31N 26°06' W 080°07'2 5.0
2017-Jun-21 01:01N 26°06' W 080°05'2 0.2
2017-Jun-20 11:17N 26°06' W 080°07'2 7.1
2017-Jun-20 11:01N 26°06' W 080°05'2 3.5
2017-Jun-20 10:30N 26°05' W 080°07'1 2.0
2017-Jun-20 10:00N 26°06' W 080°07'0 0.1
2017-Jun-20 05:32N 26°06' W 080°07'0 0.6
2017-Jun-20 05:31N 26°06' W 080°07'1 2.0
2017-Jun-20 05:00N 26°06' W 080°06'1 1.4
2017-Jun-20 04:30N 26°05' W 080°07'1 1.8
2017-Jun-20 04:00N 26°06' W 080°07'0 0.2
2017-Jun-20 01:57N 26°06' W 080°07'1 2.8
2017-Jun-20 01:30N 26°06' W 080°06'0 0.7
2017-Jun-20 01:01N 26°06' W 080°06'2 1.3
2017-Jun-19 23:48N 26°06' W 080°07'1 3.4
2017-Jun-19 23:30N 26°06' W 080°06'1 1.2
2017-Jun-19 23:00N 26°05' W 080°07'1 2.5
2017-Jun-19 22:31N 26°06' W 080°06'0 0.8
2017-Jun-19 22:00N 26°06' W 080°05'1 2.9
2017-Jun-19 21:30N 26°05' W 080°07'2 3.3
2017-Jun-19 21:01N 26°06' W 080°05'0 0.5
2017-Jun-19 20:30N 26°06' W 080°05'1 2.7
2017-Jun-19 20:00N 26°06' W 080°07'1 0.6
2017-Jun-19 18:40N 26°06' W 080°07'0 2.8
2017-Jun-19 18:30N 26°06' W 080°07'0 0.5
2017-Jun-19 18:00N 26°06' W 080°07'1 1.2
2017-Jun-19 17:31N 26°06' W 080°06'3 5.7
2017-Jun-19 17:00N 26°06' W 080°03'4 7.2
2017-Jun-19 16:30N 26°04' W 080°07'1 2.9
2017-Jun-19 16:00N 26°06' W 080°07'0 0.3
2017-Jun-19 15:30N 26°06' W 080°07'0 0.5
2017-Jun-19 15:00N 26°06' W 080°07'0 0.6
2017-Jun-19 14:30N 26°06' W 080°07'0 0.5
2017-Jun-19 13:30N 26°05' W 080°07'1 0.5
2017-Jun-19 11:10N 26°06' W 080°07'1 4.4
2017-Jun-19 11:01N 26°06' W 080°07'0 0.8
2017-Jun-19 10:30N 26°05' W 080°07'1 1.9
2017-Jun-19 10:00N 26°06' W 080°07'0 0.0
2017-Jun-19 09:30N 26°06' W 080°07'4 7.5
2017-Jun-19 09:00N 26°05' W 080°03'3 6.4
2017-Jun-19 08:30N 26°05' W 080°07'1 2.7
2017-Jun-19 08:00N 26°06' W 080°07'1 2.4
2017-Jun-19 07:30N 26°06' W 080°06'1 1.8
2017-Jun-19 07:00N 26°05' W 080°07'1 2.4
2017-Jun-19 06:30N 26°06' W 080°07'1 1.2
2017-Jun-19 06:00N 26°06' W 080°07'0 0.3
2017-Jun-19 05:30N 26°06' W 080°07'0 0.8
2017-Jun-19 05:00N 26°06' W 080°07'0 0.9
2017-Jun-19 04:30N 26°06' W 080°07'2 3.0
2017-Jun-19 04:00N 26°04' W 080°07'2 0.5
2017-Jun-19 00:00N 26°06' W 080°07'2 3.6
2017-Jun-18 23:30N 26°06' W 080°05'1 2.5
2017-Jun-18 23:00N 26°06' W 080°07'1 1.6
2017-Jun-18 22:30N 26°06' W 080°07'0 0.0
2017-Jun-18 21:46N 26°06' W 080°07'0 0.0
2017-Jun-18 21:28N 26°06' W 080°07'2 4.5
2017-Jun-18 21:01N 26°06' W 080°05'1 1.8
2017-Jun-18 20:30N 26°06' W 080°06'1 2.1
2017-Jun-18 20:00N 26°05' W 080°07'1 1.6
2017-Jun-18 19:23N 26°06' W 080°07'0 0.0
2017-Jun-18 18:30N 26°06' W 080°07'5 9.4
2017-Jun-18 18:00N 26°05' W 080°02'4 8.0
2017-Jun-18 17:30N 26°06' W 080°07'2 3.8
2017-Jun-18 17:00N 26°06' W 080°05'2 4.8
2017-Jun-18 16:31N 26°04' W 080°07'2 4.8
2017-Jun-18 16:01N 26°06' W 080°05'2 4.9
2017-Jun-18 15:30N 26°06' W 080°07'0 0.0
2017-Jun-18 15:01N 26°06' W 080°07'0 0.1
2017-Jun-18 14:01N 26°06' W 080°07'1 2.3
2017-Jun-18 13:30N 26°06' W 080°06'1 2.3
2017-Jun-18 13:00N 26°05' W 080°07'1 2.3
2017-Jun-18 12:30N 26°06' W 080°07'0 0.1
2017-Jun-18 12:00N 26°06' W 080°07'0 0.2
2017-Jun-18 09:30N 26°06' W 080°07'3 6.9
2017-Jun-18 09:01N 26°06' W 080°04'0 0.9
2017-Jun-18 08:30N 26°06' W 080°03'3 6.8
2017-Jun-18 08:01N 26°05' W 080°07'1 0.2
2017-Jun-18 03:45N 26°06' W 080°07'1 2.4
2017-Jun-18 03:30N 26°06' W 080°07'  
Track history (hours):
 
Tides and Currents Weather Stations Pressure Air Temp Water Temp Dewpoint Dewpoint Depression Visibility Wind Speed Wind Dir Waves Ship Positions

Pilot No. 4

Owner: P E P Inc, FORT LAUDERDALE, FL. More information available from US FCC via Universal Licensing System and Coast Guard Vessel Documentation Center.

Last reported at 2017-Jun-28 03:22 UTC. Time now 2017-Jun-28 07:13 UTC.
Position N 26°06' W 080°07'.

MMSI: 495270931.

Date/timePositionNaut miles runAvg speedWind from/ knotsBaromVisibWave heightAir tempDewpointWater temp
2017-Jun-28 03:22N 26°06' W 080°07'1 2.3
2017-Jun-28 03:01N 26°06' W 080°07'0 0.6
2017-Jun-28 02:30N 26°05' W 080°07'3 6.9
2017-Jun-28 02:00N 26°06' W 080°03'3 6.9
2017-Jun-28 01:31N 26°06' W 080°07'3 5.1
2017-Jun-28 01:01N 26°06' W 080°04'3 5.5
2017-Jun-28 00:31N 26°06' W 080°07'0 0.3
2017-Jun-27 23:33N 26°06' W 080°07'0 0.9
2017-Jun-27 23:30N 26°06' W 080°07'4 7.7
2017-Jun-27 23:00N 26°04' W 080°04'3 6.3
2017-Jun-27 22:30N 26°06' W 080°07'0 0.3
2017-Jun-27 22:00N 26°05' W 080°07'0 0.8
2017-Jun-27 21:30N 26°05' W 080°07'1 1.3
2017-Jun-27 21:01N 26°04' W 080°07'1 2.5
2017-Jun-27 20:30N 26°06' W 080°07'3 7.0
2017-Jun-27 20:00N 26°05' W 080°03'2 4.5
2017-Jun-27 19:30N 26°06' W 080°06'1 0.5
2017-Jun-27 16:48N 26°06' W 080°07'2 6.8
2017-Jun-27 16:30N 26°05' W 080°05'1 1.5
2017-Jun-27 16:01N 26°05' W 080°04'2 4.2
2017-Jun-27 15:31N 26°06' W 080°07'1 1.2
2017-Jun-27 15:00N 26°05' W 080°07'4 3.7
2017-Jun-27 14:00N 26°06' W 080°03'3 7.0
2017-Jun-27 13:30N 26°04' W 080°07'2 2.1
2017-Jun-27 12:38N 26°06' W 080°07'1 4.3
2017-Jun-27 12:31N 26°06' W 080°07'0 0.4
2017-Jun-27 12:01N 26°06' W 080°07'0 0.1
2017-Jun-27 08:23N 26°06' W 080°07'2 6.5
2017-Jun-27 08:00N 26°05' W 080°04'2 0.4
2017-Jun-27 01:54N 26°05' W 080°07'1 3.3
2017-Jun-27 01:31N 26°06' W 080°06'1 2.5
2017-Jun-27 01:00N 26°05' W 080°07'1 0.8
2017-Jun-26 23:43N 26°06' W 080°07'1 3.4
2017-Jun-26 23:30N 26°06' W 080°07'1 1.1
2017-Jun-26 23:01N 26°05' W 080°07'0 0.1
2017-Jun-26 22:30N 26°05' W 080°07'1 0.9
2017-Jun-26 21:22N 26°06' W 080°07'2 5.5
2017-Jun-26 21:00N 26°06' W 080°05'2 3.7
2017-Jun-26 20:30N 26°06' W 080°07'0 0.3
2017-Jun-26 20:01N 26°06' W 080°07'0 0.8
2017-Jun-26 19:30N 26°05' W 080°07'0 0.7
2017-Jun-26 19:00N 26°06' W 080°07'0 0.3
2017-Jun-26 18:31N 26°06' W 080°07'1 0.4
2017-Jun-26 17:13N 26°06' W 080°07'2 8.4
2017-Jun-26 17:00N 26°06' W 080°05'2 3.6
2017-Jun-26 16:30N 26°04' W 080°07'1 2.7
2017-Jun-26 16:00N 26°06' W 080°07'0 0.6
2017-Jun-26 15:22N 26°06' W 080°07'2 6.4
2017-Jun-26 15:01N 26°06' W 080°05'2 2.1
2017-Jun-26 14:01N 26°06' W 080°02'4 8.5
2017-Jun-26 13:30N 26°04' W 080°07'1 1.7
2017-Jun-26 13:00N 26°05' W 080°07'0 0.3
2017-Jun-26 12:30N 26°05' W 080°07'0 0.9
2017-Jun-26 12:00N 26°06' W 080°07'2 4.4
2017-Jun-26 11:30N 26°06' W 080°05'2 4.1
2017-Jun-26 11:00N 26°06' W 080°07'0 0.1
2017-Jun-26 09:22N 26°06' W 080°07'3 8.4
2017-Jun-26 09:00N 26°06' W 080°04'3 6.2
2017-Jun-26 08:30N 26°05' W 080°07'0 0.1
2017-Jun-26 08:01N 26°05' W 080°07'0 0.5
2017-Jun-26 07:31N 26°05' W 080°07'3 5.8
2017-Jun-26 07:01N 26°06' W 080°04'3 3.2
2017-Jun-26 05:57N 26°06' W 080°07'1 1.9
2017-Jun-26 05:30N 26°06' W 080°07'0 0.8
2017-Jun-26 05:00N 26°05' W 080°07'0 0.9
2017-Jun-26 04:30N 26°06' W 080°07'1 2.4
2017-Jun-26 04:00N 26°06' W 080°06'2 3.1
2017-Jun-26 03:30N 26°05' W 080°07'2 0.1
2017-Jun-25 16:52N 26°06' W 080°07'1 2.9
2017-Jun-25 16:30N 26°05' W 080°07'5 9.0
2017-Jun-25 16:00N 26°04' W 080°02'4 7.6
2017-Jun-25 15:30N 26°06' W 080°06'2 3.9
2017-Jun-25 15:00N 26°07' W 080°04'2 1.8
2017-Jun-25 14:00N 26°06' W 080°06'1 2.6
2017-Jun-25 13:31N 26°05' W 080°07'1 1.1
2017-Jun-25 12:30N 26°06' W 080°07'0 0.8
2017-Jun-25 12:01N 26°06' W 080°07'0 0.6
2017-Jun-25 11:17N 26°06' W 080°07'311.4
2017-Jun-25 11:00N 26°06' W 080°04'3 6.3
2017-Jun-25 10:30N 26°04' W 080°07'4 7.2
2017-Jun-25 10:00N 26°06' W 080°03'3 6.4
2017-Jun-25 09:30N 26°06' W 080°07'1 1.9
2017-Jun-25 09:00N 26°06' W 080°06'1 2.5
2017-Jun-25 08:30N 26°05' W 080°07'1 0.1
2017-Jun-25 01:55N 26°06' W 080°07'1 1.6
2017-Jun-25 01:30N 26°06' W 080°07'2 3.2
2017-Jun-25 01:01N 26°06' W 080°05'2 3.4
2017-Jun-25 00:30N 26°06' W 080°07'1 3.0
2017-Jun-25 00:00N 26°04' W 080°07'2 0.9
2017-Jun-24 21:47N 26°06' W 080°07'1 4.5
2017-Jun-24 21:30N 26°06' W 080°06'0 0.8
2017-Jun-24 21:00N 26°06' W 080°07'1 2.5
2017-Jun-24 20:30N 26°06' W 080°05'1 2.8
2017-Jun-24 20:01N 26°06' W 080°07'0 0.9
2017-Jun-24 19:31N 26°05' W 080°07'4 7.5
2017-Jun-24 19:01N 26°05' W 080°03'4 4.0
2017-Jun-24 17:54N 26°06' W 080°07'2 4.9
2017-Jun-24 17:31N 26°06' W 080°05'1 3.0
2017-Jun-24 17:00N 26°05' W 080°07'1 2.1
2017-Jun-24 16:30N 26°04' W 080°07'2 4.3
2017-Jun-24 16:01N 26°06' W 080°05'0 0.7
2017-Jun-24 15:31N 26°06' W 080°05'2 0.6
2017-Jun-24 12:40N 26°06' W 080°07'1 8.7
2017-Jun-24 12:31N 26°06' W 080°06'1 2.7
2017-Jun-24 12:00N 26°06' W 080°07'0 0.6
2017-Jun-24 11:17N 26°06' W 080°07'2 6.5
2017-Jun-24 11:00N 26°04' W 080°07'0 0.1
2017-Jun-24 10:30N 26°04' W 080°07'2 4.1
2017-Jun-24 10:01N 26°06' W 080°05'2 3.0
2017-Jun-24 09:31N 26°05' W 080°07'4 7.0
2017-Jun-24 09:00N 26°06' W 080°03'1 1.4
2017-Jun-24 08:30N 26°06' W 080°02'4 8.2
2017-Jun-24 08:00N 26°05' W 080°07'2 3.8
2017-Jun-24 07:30N 26°05' W 080°05'2 3.9
2017-Jun-24 07:00N 26°05' W 080°07'1 1.8
2017-Jun-24 06:30N 26°05' W 080°07'0 0.5
2017-Jun-24 06:00N 26°05' W 080°07'1 1.2
2017-Jun-24 04:51N 26°06' W 080°07'1 2.8
2017-Jun-24 04:31N 26°05' W 080°07'0 1.0
2017-Jun-24 04:00N 26°05' W 080°07'1 0.6
2017-Jun-24 01:48N 26°06' W 080°07'2 6.1
2017-Jun-24 01:30N 26°06' W 080°06'1 2.2
2017-Jun-24 01:01N 26°06' W 080°04'3 1.0
2017-Jun-23 22:21N 26°06' W 080°07'2 4.5
2017-Jun-23 22:00N 26°06' W 080°06'1 2.6
2017-Jun-23 21:30N 26°06' W 080°07'0 0.9
2017-Jun-23 21:00N 26°06' W 080°07'2 3.2
2017-Jun-23 20:30N 26°05' W 080°05'2 3.5
2017-Jun-23 20:01N 26°06' W 080°07'0 0.1
2017-Jun-23 11:05N 26°06' W 080°07'1 7.3
2017-Jun-23 11:00N 26°06' W 080°07'0 0.3
2017-Jun-23 10:30N 26°06' W 080°07'3 6.9
2017-Jun-23 10:00N 26°06' W 080°03'4 7.0
2017-Jun-23 09:31N 26°05' W 080°07'1 1.5
2017-Jun-23 09:00N 26°06' W 080°07'2 4.5
2017-Jun-23 08:30N 26°06' W 080°05'2 4.8
2017-Jun-23 08:00N 26°04' W 080°07'3 6.9
2017-Jun-23 07:30N 26°06' W 080°03'3 5.3
2017-Jun-23 07:01N 26°06' W 080°06'1 1.1
2017-Jun-23 06:30N 26°06' W 080°07'0 0.6
2017-Jun-23 06:00N 26°05' W 080°07'0 0.6
2017-Jun-23 05:30N 26°06' W 080°07'1 1.3
2017-Jun-23 05:00N 26°05' W 080°07'0 0.4
2017-Jun-23 04:30N 26°05' W 080°07'1 1.8
2017-Jun-23 04:00N 26°06' W 080°07'0 0.2
2017-Jun-23 02:57N 26°06' W 080°07'1 1.5
2017-Jun-23 02:30N 26°06' W 080°07'0 0.4
2017-Jun-23 02:00N 26°05' W 080°07'1 1.3
2017-Jun-23 01:30N 26°06' W 080°07'3 5.2
2017-Jun-23 01:00N 26°06' W 080°04'3 5.2
2017-Jun-23 00:30N 26°06' W 080°07'1 1.0
2017-Jun-23 00:00N 26°06' W 080°07'0 0.0
2017-Jun-22 23:30N 26°06' W 080°07'1 1.2
2017-Jun-22 23:00N 26°06' W 080°07'1 0.5
2017-Jun-22 21:44N 26°06' W 080°07'1 3.8
2017-Jun-22 21:31N 26°06' W 080°07'0 0.8
2017-Jun-22 21:00N 26°06' W 080°07'0 0.3
2017-Jun-22 20:31N 26°05' W 080°07'0 0.5
2017-Jun-22 20:00N 26°05' W 080°07'1 2.6
2017-Jun-22 19:31N 26°06' W 080°05'2 3.5
2017-Jun-22 19:00N 26°06' W 080°07'1 1.4
2017-Jun-22 18:30N 26°05' W 080°07'2 4.9
2017-Jun-22 18:00N 26°06' W 080°05'2 4.7
2017-Jun-22 17:30N 26°06' W 080°07'1 0.2
2017-Jun-22 14:29N 26°06' W 080°07'1 0.6
2017-Jun-22 13:31N 26°06' W 080°07'5 9.8
2017-Jun-22 13:01N 26°05' W 080°02'5 9.3
2017-Jun-22 12:30N 26°06' W 080°07'0 0.4
2017-Jun-22 12:01N 26°06' W 080°07'1 1.7
2017-Jun-22 11:30N 26°06' W 080°06'1 1.9
2017-Jun-22 11:00N 26°05' W 080°07'0 0.4
2017-Jun-22 10:30N 26°05' W 080°07'2 4.2
2017-Jun-22 10:01N 26°06' W 080°05'2 4.8
2017-Jun-22 09:30N 26°04' W 080°07'4 8.6
2017-Jun-22 09:00N 26°06' W 080°02'0 0.8
2017-Jun-22 08:31N 26°06' W 080°02'2 4.8
2017-Jun-22 08:00N 26°06' W 080°05'2 4.3
2017-Jun-22 07:30N 26°04' W 080°07'0 0.4
2017-Jun-22 07:00N 26°05' W 080°07'1 1.9
2017-Jun-22 06:30N 26°06' W 080°07'0 0.7
2017-Jun-22 06:01N 26°05' W 080°07'0 0.8
2017-Jun-22 05:30N 26°06' W 080°07'0 0.8
2017-Jun-22 05:00N 26°05' W 080°07'0 0.7
2017-Jun-22 04:30N 26°06' W 080°07'1 0.8
2017-Jun-22 03:43N 26°06' W 080°07'1 4.9
2017-Jun-22 03:30N 26°05' W 080°07'0 0.6
2017-Jun-22 03:00N 26°05' W 080°07'0 0.3
2017-Jun-22 02:30N 26°05' W 080°07'0 0.2
2017-Jun-22 02:00N 26°05' W 080°07'2 3.2
2017-Jun-22 01:30N 26°05' W 080°05'2 3.2
2017-Jun-22 01:00N 26°05' W 080°07'1 1.2
2017-Jun-22 00:30N 26°06' W 080°07'0 0.2
2017-Jun-21 22:33N 26°06' W 080°07'0 4.0
2017-Jun-21 22:31N 26°06' W 080°07'5 9.1
2017-Jun-21 22:00N 26°05' W 080°02'4 8.1
2017-Jun-21 21:31N 26°05' W 080°07'1 1.1
2017-Jun-21 20:11N 26°06' W 080°07'1 3.8
2017-Jun-21 20:00N 26°06' W 080°07'1 1.1
2017-Jun-21 19:31N 26°06' W 080°06'1 0.3
2017-Jun-21 16:16N 26°06' W 080°07'2 9.0
2017-Jun-21 16:01N 26°06' W 080°05'2 4.6
2017-Jun-21 15:30N 26°04' W 080°07'4 8.1
2017-Jun-21 15:00N 26°05' W 080°03'4 7.9
2017-Jun-21 14:30N 26°04' W 080°07'1 1.2
2017-Jun-21 13:30N 26°06' W 080°07'4 8.0
2017-Jun-21 13:00N 26°06' W 080°03'4 7.2
2017-Jun-21 12:30N 26°05' W 080°07'1 0.1
2017-Jun-21 01:36N 26°06' W 080°07'0 0.1
2017-Jun-21 01:31N 26°06' W 080°07'2 5.0
2017-Jun-21 01:01N 26°06' W 080°05'2 0.2
2017-Jun-20 11:17N 26°06' W 080°07'2 7.1
2017-Jun-20 11:01N 26°06' W 080°05'2 3.5
2017-Jun-20 10:30N 26°05' W 080°07'1 2.0
2017-Jun-20 10:00N 26°06' W 080°07'0 0.1
2017-Jun-20 05:32N 26°06' W 080°07'0 0.6
2017-Jun-20 05:31N 26°06' W 080°07'1 2.0
2017-Jun-20 05:00N 26°06' W 080°06'1 1.4
2017-Jun-20 04:30N 26°05' W 080°07'1 1.8
2017-Jun-20 04:00N 26°06' W 080°07'0 0.2
2017-Jun-20 01:57N 26°06' W 080°07'1 2.8
2017-Jun-20 01:30N 26°06' W 080°06'0 0.7
2017-Jun-20 01:01N 26°06' W 080°06'2 1.3
2017-Jun-19 23:48N 26°06' W 080°07'1 3.4
2017-Jun-19 23:30N 26°06' W 080°06'1 1.2
2017-Jun-19 23:00N 26°05' W 080°07'1 2.5
2017-Jun-19 22:31N 26°06' W 080°06'0 0.8
2017-Jun-19 22:00N 26°06' W 080°05'1 2.9
2017-Jun-19 21:30N 26°05' W 080°07'2 3.3
2017-Jun-19 21:01N 26°06' W 080°05'0 0.5
2017-Jun-19 20:30N 26°06' W 080°05'1 2.7
2017-Jun-19 20:00N 26°06' W 080°07'1 0.6
2017-Jun-19 18:40N 26°06' W 080°07'0 2.8
2017-Jun-19 18:30N 26°06' W 080°07'0 0.5
2017-Jun-19 18:00N 26°06' W 080°07'1 1.2
2017-Jun-19 17:31N 26°06' W 080°06'3 5.7
2017-Jun-19 17:00N 26°06' W 080°03'4 7.2
2017-Jun-19 16:30N 26°04' W 080°07'1 2.9
2017-Jun-19 16:00N 26°06' W 080°07'0 0.3
2017-Jun-19 15:30N 26°06' W 080°07'0 0.5
2017-Jun-19 15:00N 26°06' W 080°07'0 0.6
2017-Jun-19 14:30N 26°06' W 080°07'0 0.5
2017-Jun-19 13:30N 26°05' W 080°07'1 0.5
2017-Jun-19 11:10N 26°06' W 080°07'1 4.4
2017-Jun-19 11:01N 26°06' W 080°07'0 0.8
2017-Jun-19 10:30N 26°05' W 080°07'1 1.9
2017-Jun-19 10:00N 26°06' W 080°07'0 0.0
2017-Jun-19 09:30N 26°06' W 080°07'4 7.5
2017-Jun-19 09:00N 26°05' W 080°03'3 6.4
2017-Jun-19 08:30N 26°05' W 080°07'1 2.7
2017-Jun-19 08:00N 26°06' W 080°07'1 2.4
2017-Jun-19 07:30N 26°06' W 080°06'1 1.8
2017-Jun-19 07:00N 26°05' W 080°07'1 2.4
2017-Jun-19 06:30N 26°06' W 080°07'1 1.2
2017-Jun-19 06:00N 26°06' W 080°07'0 0.3
2017-Jun-19 05:30N 26°06' W 080°07'0 0.8
2017-Jun-19 05:00N 26°06' W 080°07'0 0.9
2017-Jun-19 04:30N 26°06' W 080°07'2 3.0
2017-Jun-19 04:00N 26°04' W 080°07'2 0.5
2017-Jun-19 00:00N 26°06' W 080°07'2 3.6
2017-Jun-18 23:30N 26°06' W 080°05'1 2.5
2017-Jun-18 23:00N 26°06' W 080°07'1 1.6
2017-Jun-18 22:30N 26°06' W 080°07'0 0.0
2017-Jun-18 21:46N 26°06' W 080°07'0 0.0
2017-Jun-18 21:28N 26°06' W 080°07'2 4.5
2017-Jun-18 21:01N 26°06' W 080°05'1 1.8
2017-Jun-18 20:30N 26°06' W 080°06'1 2.1
2017-Jun-18 20:00N 26°05' W 080°07'1 1.6
2017-Jun-18 19:23N 26°06' W 080°07'0 0.0
2017-Jun-18 18:30N 26°06' W 080°07'5 9.4
2017-Jun-18 18:00N 26°05' W 080°02'4 8.0
2017-Jun-18 17:30N 26°06' W 080°07'2 3.8
2017-Jun-18 17:00N 26°06' W 080°05'2 4.8
2017-Jun-18 16:31N 26°04' W 080°07'2 4.8
2017-Jun-18 16:01N 26°06' W 080°05'2 4.9
2017-Jun-18 15:30N 26°06' W 080°07'0 0.0
2017-Jun-18 15:01N 26°06' W 080°07'0 0.1
2017-Jun-18 14:01N 26°06' W 080°07'1 2.3
2017-Jun-18 13:30N 26°06' W 080°06'1 2.3
2017-Jun-18 13:00N 26°05' W 080°07'1 2.3
2017-Jun-18 12:30N 26°06' W 080°07'0 0.1
2017-Jun-18 12:00N 26°06' W 080°07'0 0.2
2017-Jun-18 09:30N 26°06' W 080°07'3 6.9
2017-Jun-18 09:01N 26°06' W 080°04'0 0.9
2017-Jun-18 08:30N 26°06' W 080°03'3 6.8
2017-Jun-18 08:01N 26°05' W 080°07'1 0.2
2017-Jun-18 03:45N 26°06' W 080°07'1 2.4
2017-Jun-18 03:30N 26°06' W 080°07'  

Dump ship's entire track history